sensor_id;sensor_type;location;lat;lon;timestamp;P1;durP1;ratioP1;P2;durP2;ratioP2
72439;SDS011;60446;50.752;4.352;2023-08-06T00:01:01;8.35;;;1.40;;
72439;SDS011;60446;50.752;4.352;2023-08-06T00:03:29;5.22;;;1.10;;
72439;SDS011;60446;50.752;4.352;2023-08-06T00:05:56;6.30;;;1.55;;
72439;SDS011;60446;50.752;4.352;2023-08-06T00:08:23;7.07;;;1.73;;
72439;SDS011;60446;50.752;4.352;2023-08-06T00:10:51;6.97;;;1.50;;
72439;SDS011;60446;50.752;4.352;2023-08-06T00:13:18;7.43;;;1.27;;
72439;SDS011;60446;50.752;4.352;2023-08-06T00:15:45;6.90;;;1.65;;
72439;SDS011;60446;50.752;4.352;2023-08-06T00:18:13;7.32;;;1.60;;
72439;SDS011;60446;50.752;4.352;2023-08-06T00:20:40;5.80;;;1.50;;
72439;SDS011;60446;50.752;4.352;2023-08-06T00:23:10;5.68;;;1.40;;
72439;SDS011;60446;50.752;4.352;2023-08-06T00:25:37;5.85;;;1.33;;
72439;SDS011;60446;50.752;4.352;2023-08-06T00:28:04;6.88;;;1.92;;
72439;SDS011;60446;50.752;4.352;2023-08-06T00:30:31;7.38;;;1.35;;
72439;SDS011;60446;50.752;4.352;2023-08-06T00:32:59;9.33;;;1.80;;
72439;SDS011;60446;50.752;4.352;2023-08-06T00:35:26;8.25;;;1.90;;
72439;SDS011;60446;50.752;4.352;2023-08-06T00:37:53;9.48;;;2.00;;
72439;SDS011;60446;50.752;4.352;2023-08-06T00:40:20;6.53;;;2.05;;
72439;SDS011;60446;50.752;4.352;2023-08-06T00:42:49;10.07;;;2.13;;
72439;SDS011;60446;50.752;4.352;2023-08-06T00:45:16;9.00;;;2.10;;
72439;SDS011;60446;50.752;4.352;2023-08-06T00:47:43;8.15;;;1.83;;
72439;SDS011;60446;50.752;4.352;2023-08-06T00:50:12;10.25;;;1.95;;
72439;SDS011;60446;50.752;4.352;2023-08-06T00:52:40;12.50;;;2.22;;
72439;SDS011;60446;50.752;4.352;2023-08-06T00:55:08;9.02;;;2.70;;
72439;SDS011;60446;50.752;4.352;2023-08-06T00:57:36;10.40;;;2.47;;
72439;SDS011;60446;50.752;4.352;2023-08-06T01:00:04;8.93;;;2.33;;
72439;SDS011;60446;50.752;4.352;2023-08-06T01:02:32;10.18;;;2.55;;
72439;SDS011;60446;50.752;4.352;2023-08-06T01:04:59;9.15;;;2.50;;
72439;SDS011;60446;50.752;4.352;2023-08-06T01:13:24;11.80;;;3.20;;
72439;SDS011;60446;50.752;4.352;2023-08-06T01:16:20;15.20;;;3.30;;
72439;SDS011;60446;50.752;4.352;2023-08-06T01:18:48;11.65;;;3.45;;
72439;SDS011;60446;50.752;4.352;2023-08-06T01:21:16;11.88;;;3.85;;
72439;SDS011;60446;50.752;4.352;2023-08-06T01:23:45;11.67;;;3.10;;
72439;SDS011;60446;50.752;4.352;2023-08-06T01:29:23;11.02;;;3.30;;
72439;SDS011;60446;50.752;4.352;2023-08-06T01:32:14;12.23;;;3.67;;
72439;SDS011;60446;50.752;4.352;2023-08-06T01:34:43;11.52;;;3.50;;
72439;SDS011;60446;50.752;4.352;2023-08-06T01:37:11;12.80;;;3.83;;
72439;SDS011;60446;50.752;4.352;2023-08-06T01:39:39;15.70;;;3.63;;
72439;SDS011;60446;50.752;4.352;2023-08-06T01:42:09;10.45;;;3.75;;
72439;SDS011;60446;50.752;4.352;2023-08-06T01:44:36;10.70;;;3.10;;
72439;SDS011;60446;50.752;4.352;2023-08-06T01:47:04;11.23;;;2.92;;
72439;SDS011;60446;50.752;4.352;2023-08-06T01:49:32;12.37;;;3.50;;
72439;SDS011;60446;50.752;4.352;2023-08-06T01:51:59;11.85;;;3.47;;
72439;SDS011;60446;50.752;4.352;2023-08-06T01:54:27;12.88;;;3.10;;
72439;SDS011;60446;50.752;4.352;2023-08-06T01:56:54;7.93;;;2.50;;
72439;SDS011;60446;50.752;4.352;2023-08-06T01:59:22;8.90;;;2.88;;
72439;SDS011;60446;50.752;4.352;2023-08-06T02:01:49;7.63;;;2.67;;
72439;SDS011;60446;50.752;4.352;2023-08-06T02:04:17;9.77;;;2.53;;
72439;SDS011;60446;50.752;4.352;2023-08-06T02:06:44;6.55;;;1.63;;
72439;SDS011;60446;50.752;4.352;2023-08-06T02:09:11;11.02;;;2.30;;
72439;SDS011;60446;50.752;4.352;2023-08-06T02:11:38;6.50;;;1.73;;
72439;SDS011;60446;50.752;4.352;2023-08-06T02:14:05;6.73;;;1.80;;
72439;SDS011;60446;50.752;4.352;2023-08-06T02:16:32;8.00;;;1.50;;
72439;SDS011;60446;50.752;4.352;2023-08-06T02:19:01;6.18;;;1.40;;
72439;SDS011;60446;50.752;4.352;2023-08-06T02:21:28;8.90;;;1.50;;
72439;SDS011;60446;50.752;4.352;2023-08-06T02:23:55;6.18;;;1.48;;
72439;SDS011;60446;50.752;4.352;2023-08-06T02:26:23;6.03;;;1.90;;
72439;SDS011;60446;50.752;4.352;2023-08-06T02:28:50;7.15;;;1.60;;
72439;SDS011;60446;50.752;4.352;2023-08-06T02:31:17;7.30;;;2.00;;
72439;SDS011;60446;50.752;4.352;2023-08-06T02:33:44;7.65;;;2.05;;
72439;SDS011;60446;50.752;4.352;2023-08-06T02:36:11;5.32;;;1.50;;
72439;SDS011;60446;50.752;4.352;2023-08-06T02:38:38;5.70;;;1.57;;
72439;SDS011;60446;50.752;4.352;2023-08-06T02:41:06;7.05;;;2.10;;
72439;SDS011;60446;50.752;4.352;2023-08-06T02:43:33;6.47;;;1.45;;
72439;SDS011;60446;50.752;4.352;2023-08-06T02:46:00;6.15;;;1.77;;
72439;SDS011;60446;50.752;4.352;2023-08-06T02:48:28;5.57;;;1.60;;
72439;SDS011;60446;50.752;4.352;2023-08-06T02:50:58;6.20;;;1.43;;
72439;SDS011;60446;50.752;4.352;2023-08-06T02:53:28;5.32;;;1.58;;
72439;SDS011;60446;50.752;4.352;2023-08-06T02:55:58;6.20;;;1.30;;
72439;SDS011;60446;50.752;4.352;2023-08-06T02:58:33;6.82;;;1.60;;
72439;SDS011;60446;50.752;4.352;2023-08-06T03:01:09;4.57;;;1.15;;
72439;SDS011;60446;50.752;4.352;2023-08-06T03:03:45;5.10;;;1.53;;
72439;SDS011;60446;50.752;4.352;2023-08-06T03:06:19;6.35;;;1.60;;
72439;SDS011;60446;50.752;4.352;2023-08-06T03:08:50;10.80;;;2.20;;
72439;SDS011;60446;50.752;4.352;2023-08-06T03:11:17;11.27;;;2.17;;
72439;SDS011;60446;50.752;4.352;2023-08-06T03:13:45;9.30;;;2.45;;
72439;SDS011;60446;50.752;4.352;2023-08-06T03:16:14;10.90;;;2.83;;
72439;SDS011;60446;50.752;4.352;2023-08-06T03:18:41;8.30;;;2.17;;
72439;SDS011;60446;50.752;4.352;2023-08-06T03:21:09;12.32;;;3.97;;
72439;SDS011;60446;50.752;4.352;2023-08-06T03:23:37;10.18;;;3.33;;
72439;SDS011;60446;50.752;4.352;2023-08-06T03:26:05;15.95;;;4.30;;
72439;SDS011;60446;50.752;4.352;2023-08-06T03:28:32;16.87;;;5.10;;
72439;SDS011;60446;50.752;4.352;2023-08-06T03:31:01;18.25;;;5.32;;
72439;SDS011;60446;50.752;4.352;2023-08-06T03:33:36;17.95;;;5.40;;
72439;SDS011;60446;50.752;4.352;2023-08-06T03:36:07;19.00;;;4.85;;
72439;SDS011;60446;50.752;4.352;2023-08-06T03:38:35;14.05;;;3.92;;
72439;SDS011;60446;50.752;4.352;2023-08-06T03:41:05;9.97;;;2.93;;
72439;SDS011;60446;50.752;4.352;2023-08-06T03:43:32;8.02;;;2.17;;
72439;SDS011;60446;50.752;4.352;2023-08-06T03:46:02;6.22;;;1.30;;
72439;SDS011;60446;50.752;4.352;2023-08-06T03:48:29;5.68;;;1.27;;
72439;SDS011;60446;50.752;4.352;2023-08-06T03:50:57;4.65;;;1.25;;
72439;SDS011;60446;50.752;4.352;2023-08-06T03:53:27;3.53;;;0.97;;
72439;SDS011;60446;50.752;4.352;2023-08-06T03:55:55;5.07;;;1.20;;
72439;SDS011;60446;50.752;4.352;2023-08-06T03:58:26;3.63;;;0.80;;
72439;SDS011;60446;50.752;4.352;2023-08-06T04:00:57;5.30;;;0.98;;
72439;SDS011;60446;50.752;4.352;2023-08-06T04:03:42;5.88;;;0.82;;
72439;SDS011;60446;50.752;4.352;2023-08-06T04:06:10;3.60;;;0.67;;
72439;SDS011;60446;50.752;4.352;2023-08-06T04:08:37;8.35;;;1.10;;
72439;SDS011;60446;50.752;4.352;2023-08-06T04:11:04;5.63;;;0.80;;
72439;SDS011;60446;50.752;4.352;2023-08-06T04:13:32;3.63;;;0.80;;
72439;SDS011;60446;50.752;4.352;2023-08-06T04:16:02;2.53;;;0.75;;
72439;SDS011;60446;50.752;4.352;2023-08-06T04:18:31;3.90;;;0.83;;
72439;SDS011;60446;50.752;4.352;2023-08-06T04:20:58;5.78;;;1.00;;
72439;SDS011;60446;50.752;4.352;2023-08-06T04:23:25;5.35;;;1.10;;
72439;SDS011;60446;50.752;4.352;2023-08-06T04:25:57;9.63;;;1.42;;
72439;SDS011;60446;50.752;4.352;2023-08-06T04:28:29;6.07;;;1.70;;
72439;SDS011;60446;50.752;4.352;2023-08-06T04:30:58;6.53;;;1.70;;
72439;SDS011;60446;50.752;4.352;2023-08-06T04:33:27;8.07;;;1.60;;
72439;SDS011;60446;50.752;4.352;2023-08-06T04:35:57;7.30;;;1.23;;
72439;SDS011;60446;50.752;4.352;2023-08-06T04:38:26;6.22;;;1.73;;
72439;SDS011;60446;50.752;4.352;2023-08-06T04:40:54;6.90;;;1.95;;
72439;SDS011;60446;50.752;4.352;2023-08-06T04:43:23;6.17;;;1.70;;
72439;SDS011;60446;50.752;4.352;2023-08-06T04:45:51;6.53;;;2.00;;
72439;SDS011;60446;50.752;4.352;2023-08-06T04:48:20;7.72;;;2.10;;
72439;SDS011;60446;50.752;4.352;2023-08-06T04:50:48;7.13;;;2.33;;
72439;SDS011;60446;50.752;4.352;2023-08-06T04:53:17;7.50;;;2.85;;
72439;SDS011;60446;50.752;4.352;2023-08-06T04:55:44;7.57;;;2.40;;
72439;SDS011;60446;50.752;4.352;2023-08-06T04:58:11;9.63;;;2.63;;
72439;SDS011;60446;50.752;4.352;2023-08-06T05:00:39;7.57;;;2.25;;
72439;SDS011;60446;50.752;4.352;2023-08-06T05:03:06;10.45;;;3.08;;
72439;SDS011;60446;50.752;4.352;2023-08-06T05:05:33;11.65;;;3.20;;
72439;SDS011;60446;50.752;4.352;2023-08-06T05:08:01;6.97;;;2.43;;
72439;SDS011;60446;50.752;4.352;2023-08-06T05:10:28;7.47;;;2.50;;
72439;SDS011;60446;50.752;4.352;2023-08-06T05:12:55;11.23;;;3.40;;
72439;SDS011;60446;50.752;4.352;2023-08-06T05:15:23;9.80;;;3.15;;
72439;SDS011;60446;50.752;4.352;2023-08-06T05:17:51;10.18;;;2.83;;
72439;SDS011;60446;50.752;4.352;2023-08-06T05:20:20;6.20;;;2.27;;
72439;SDS011;60446;50.752;4.352;2023-08-06T05:22:47;9.23;;;2.90;;
72439;SDS011;60446;50.752;4.352;2023-08-06T05:25:14;7.78;;;2.25;;
72439;SDS011;60446;50.752;4.352;2023-08-06T05:27:42;7.63;;;2.25;;
72439;SDS011;60446;50.752;4.352;2023-08-06T05:30:09;11.70;;;2.78;;
72439;SDS011;60446;50.752;4.352;2023-08-06T05:32:37;12.20;;;2.80;;
72439;SDS011;60446;50.752;4.352;2023-08-06T05:35:04;11.15;;;3.15;;
72439;SDS011;60446;50.752;4.352;2023-08-06T05:37:32;10.50;;;2.63;;
72439;SDS011;60446;50.752;4.352;2023-08-06T05:40:00;9.90;;;2.63;;
72439;SDS011;60446;50.752;4.352;2023-08-06T05:42:28;8.75;;;2.33;;
72439;SDS011;60446;50.752;4.352;2023-08-06T05:44:55;11.70;;;2.60;;
72439;SDS011;60446;50.752;4.352;2023-08-06T05:47:23;9.60;;;2.50;;
72439;SDS011;60446;50.752;4.352;2023-08-06T05:49:50;11.30;;;2.33;;
72439;SDS011;60446;50.752;4.352;2023-08-06T05:52:17;11.32;;;2.25;;
72439;SDS011;60446;50.752;4.352;2023-08-06T05:54:44;10.23;;;2.33;;
72439;SDS011;60446;50.752;4.352;2023-08-06T05:57:11;10.90;;;2.33;;
72439;SDS011;60446;50.752;4.352;2023-08-06T05:59:40;12.35;;;2.40;;
72439;SDS011;60446;50.752;4.352;2023-08-06T06:02:07;11.35;;;2.15;;
72439;SDS011;60446;50.752;4.352;2023-08-06T06:04:34;15.65;;;2.17;;
72439;SDS011;60446;50.752;4.352;2023-08-06T06:07:02;8.25;;;2.28;;
72439;SDS011;60446;50.752;4.352;2023-08-06T06:09:29;12.67;;;2.30;;
72439;SDS011;60446;50.752;4.352;2023-08-06T06:11:56;8.68;;;1.90;;
72439;SDS011;60446;50.752;4.352;2023-08-06T06:14:24;8.63;;;1.80;;
72439;SDS011;60446;50.752;4.352;2023-08-06T06:16:51;8.27;;;1.80;;
72439;SDS011;60446;50.752;4.352;2023-08-06T06:19:19;11.52;;;2.30;;
72439;SDS011;60446;50.752;4.352;2023-08-06T06:21:46;9.67;;;2.20;;
72439;SDS011;60446;50.752;4.352;2023-08-06T06:24:14;9.80;;;1.85;;
72439;SDS011;60446;50.752;4.352;2023-08-06T06:26:41;7.88;;;1.83;;
72439;SDS011;60446;50.752;4.352;2023-08-06T06:29:08;8.93;;;2.28;;
72439;SDS011;60446;50.752;4.352;2023-08-06T06:31:35;9.90;;;2.00;;
72439;SDS011;60446;50.752;4.352;2023-08-06T06:34:03;9.57;;;2.23;;
72439;SDS011;60446;50.752;4.352;2023-08-06T06:36:30;7.97;;;2.20;;
72439;SDS011;60446;50.752;4.352;2023-08-06T06:38:57;8.52;;;2.08;;
72439;SDS011;60446;50.752;4.352;2023-08-06T06:41:24;10.20;;;1.77;;
72439;SDS011;60446;50.752;4.352;2023-08-06T06:43:53;6.70;;;1.85;;
72439;SDS011;60446;50.752;4.352;2023-08-06T06:46:20;8.20;;;2.07;;
72439;SDS011;60446;50.752;4.352;2023-08-06T06:48:47;10.25;;;2.10;;
72439;SDS011;60446;50.752;4.352;2023-08-06T06:51:14;10.60;;;2.00;;
72439;SDS011;60446;50.752;4.352;2023-08-06T06:53:41;12.73;;;2.25;;
72439;SDS011;60446;50.752;4.352;2023-08-06T06:56:09;8.45;;;1.70;;
72439;SDS011;60446;50.752;4.352;2023-08-06T06:58:36;10.73;;;2.00;;
72439;SDS011;60446;50.752;4.352;2023-08-06T07:01:05;10.65;;;1.95;;
72439;SDS011;60446;50.752;4.352;2023-08-06T07:03:34;7.03;;;1.45;;
72439;SDS011;60446;50.752;4.352;2023-08-06T07:06:01;6.68;;;1.52;;
72439;SDS011;60446;50.752;4.352;2023-08-06T07:08:30;6.90;;;1.50;;
72439;SDS011;60446;50.752;4.352;2023-08-06T07:11:04;6.77;;;1.30;;
72439;SDS011;60446;50.752;4.352;2023-08-06T07:13:36;6.13;;;0.85;;
72439;SDS011;60446;50.752;4.352;2023-08-06T07:16:03;5.80;;;1.20;;
72439;SDS011;60446;50.752;4.352;2023-08-06T07:18:31;9.52;;;1.20;;
72439;SDS011;60446;50.752;4.352;2023-08-06T07:20:58;8.63;;;1.13;;
72439;SDS011;60446;50.752;4.352;2023-08-06T07:23:25;6.67;;;0.97;;
72439;SDS011;60446;50.752;4.352;2023-08-06T07:25:53;3.95;;;0.70;;
72439;SDS011;60446;50.752;4.352;2023-08-06T07:28:20;7.70;;;1.05;;
72439;SDS011;60446;50.752;4.352;2023-08-06T07:30:48;5.22;;;0.80;;
72439;SDS011;60446;50.752;4.352;2023-08-06T07:33:16;4.97;;;0.70;;
72439;SDS011;60446;50.752;4.352;2023-08-06T07:35:43;4.00;;;0.63;;
72439;SDS011;60446;50.752;4.352;2023-08-06T07:38:10;5.53;;;0.68;;
72439;SDS011;60446;50.752;4.352;2023-08-06T07:40:38;8.68;;;0.80;;
72439;SDS011;60446;50.752;4.352;2023-08-06T07:43:05;3.88;;;0.80;;
72439;SDS011;60446;50.752;4.352;2023-08-06T07:45:33;4.35;;;0.70;;
72439;SDS011;60446;50.752;4.352;2023-08-06T07:48:05;6.60;;;0.70;;
72439;SDS011;60446;50.752;4.352;2023-08-06T07:50:32;7.28;;;0.60;;
72439;SDS011;60446;50.752;4.352;2023-08-06T07:52:59;4.15;;;0.60;;
72439;SDS011;60446;50.752;4.352;2023-08-06T07:55:27;7.10;;;0.65;;
72439;SDS011;60446;50.752;4.352;2023-08-06T07:57:54;7.90;;;0.65;;
72439;SDS011;60446;50.752;4.352;2023-08-06T08:00:21;4.17;;;0.50;;
72439;SDS011;60446;50.752;4.352;2023-08-06T08:02:48;7.55;;;0.80;;
72439;SDS011;60446;50.752;4.352;2023-08-06T08:05:17;8.30;;;0.90;;
72439;SDS011;60446;50.752;4.352;2023-08-06T08:07:44;7.82;;;1.10;;
72439;SDS011;60446;50.752;4.352;2023-08-06T08:10:11;8.75;;;1.23;;
72439;SDS011;60446;50.752;4.352;2023-08-06T08:12:38;6.80;;;0.90;;
72439;SDS011;60446;50.752;4.352;2023-08-06T08:15:06;8.75;;;1.15;;
72439;SDS011;60446;50.752;4.352;2023-08-06T08:17:33;7.03;;;0.55;;
72439;SDS011;60446;50.752;4.352;2023-08-06T08:20:01;7.10;;;1.30;;
72439;SDS011;60446;50.752;4.352;2023-08-06T08:22:29;5.63;;;1.00;;
72439;SDS011;60446;50.752;4.352;2023-08-06T08:24:56;6.83;;;0.83;;
72439;SDS011;60446;50.752;4.352;2023-08-06T08:27:23;5.10;;;0.98;;
72439;SDS011;60446;50.752;4.352;2023-08-06T08:29:51;5.40;;;0.90;;
72439;SDS011;60446;50.752;4.352;2023-08-06T08:32:18;3.47;;;0.77;;
72439;SDS011;60446;50.752;4.352;2023-08-06T08:34:45;6.53;;;1.20;;
72439;SDS011;60446;50.752;4.352;2023-08-06T08:37:13;5.97;;;1.00;;
72439;SDS011;60446;50.752;4.352;2023-08-06T08:39:40;6.50;;;0.98;;
72439;SDS011;60446;50.752;4.352;2023-08-06T08:42:14;9.38;;;0.80;;
72439;SDS011;60446;50.752;4.352;2023-08-06T08:44:42;5.10;;;0.68;;
72439;SDS011;60446;50.752;4.352;2023-08-06T08:47:11;5.47;;;1.00;;
72439;SDS011;60446;50.752;4.352;2023-08-06T08:49:40;6.37;;;0.63;;
72439;SDS011;60446;50.752;4.352;2023-08-06T08:52:09;5.53;;;1.15;;
72439;SDS011;60446;50.752;4.352;2023-08-06T08:54:39;6.75;;;0.75;;
72439;SDS011;60446;50.752;4.352;2023-08-06T08:57:07;5.35;;;0.85;;
72439;SDS011;60446;50.752;4.352;2023-08-06T08:59:34;9.00;;;0.88;;
72439;SDS011;60446;50.752;4.352;2023-08-06T09:02:02;6.10;;;0.60;;
72439;SDS011;60446;50.752;4.352;2023-08-06T09:04:30;4.53;;;0.77;;
72439;SDS011;60446;50.752;4.352;2023-08-06T09:07:00;6.90;;;1.13;;
72439;SDS011;60446;50.752;4.352;2023-08-06T09:09:30;7.38;;;1.10;;
72439;SDS011;60446;50.752;4.352;2023-08-06T09:12:01;4.47;;;0.95;;
72439;SDS011;60446;50.752;4.352;2023-08-06T09:14:34;6.30;;;0.87;;
72439;SDS011;60446;50.752;4.352;2023-08-06T09:17:01;3.97;;;0.80;;
72439;SDS011;60446;50.752;4.352;2023-08-06T09:19:31;5.43;;;0.73;;
72439;SDS011;60446;50.752;4.352;2023-08-06T09:21:59;6.38;;;1.05;;
72439;SDS011;60446;50.752;4.352;2023-08-06T09:24:26;3.63;;;0.70;;
72439;SDS011;60446;50.752;4.352;2023-08-06T09:26:54;6.97;;;1.00;;
72439;SDS011;60446;50.752;4.352;2023-08-06T09:29:21;6.68;;;1.42;;
72439;SDS011;60446;50.752;4.352;2023-08-06T09:31:49;4.88;;;0.90;;
72439;SDS011;60446;50.752;4.352;2023-08-06T09:34:21;7.78;;;1.13;;
72439;SDS011;60446;50.752;4.352;2023-08-06T09:36:50;5.55;;;0.88;;
72439;SDS011;60446;50.752;4.352;2023-08-06T09:39:29;5.70;;;0.87;;
72439;SDS011;60446;50.752;4.352;2023-08-06T09:41:58;9.13;;;1.75;;
72439;SDS011;60446;50.752;4.352;2023-08-06T09:44:27;5.57;;;1.13;;
72439;SDS011;60446;50.752;4.352;2023-08-06T09:47:00;6.13;;;0.90;;
72439;SDS011;60446;50.752;4.352;2023-08-06T09:51:59;8.17;;;1.27;;
72439;SDS011;60446;50.752;4.352;2023-08-06T09:54:27;7.82;;;1.20;;
72439;SDS011;60446;50.752;4.352;2023-08-06T09:56:56;7.07;;;0.90;;
72439;SDS011;60446;50.752;4.352;2023-08-06T09:59:24;6.85;;;1.10;;
72439;SDS011;60446;50.752;4.352;2023-08-06T10:01:52;5.50;;;1.00;;
72439;SDS011;60446;50.752;4.352;2023-08-06T10:04:24;6.77;;;1.10;;
72439;SDS011;60446;50.752;4.352;2023-08-06T10:07:00;5.32;;;1.00;;
72439;SDS011;60446;50.752;4.352;2023-08-06T10:09:28;4.32;;;0.93;;
72439;SDS011;60446;50.752;4.352;2023-08-06T10:11:55;6.10;;;0.85;;
72439;SDS011;60446;50.752;4.352;2023-08-06T10:14:25;5.80;;;1.13;;
72439;SDS011;60446;50.752;4.352;2023-08-06T10:16:57;7.37;;;1.30;;
72439;SDS011;60446;50.752;4.352;2023-08-06T10:19:26;8.75;;;1.08;;
72439;SDS011;60446;50.752;4.352;2023-08-06T10:22:09;7.55;;;1.15;;
72439;SDS011;60446;50.752;4.352;2023-08-06T10:24:54;5.65;;;0.50;;
72439;SDS011;60446;50.752;4.352;2023-08-06T10:27:40;5.55;;;0.73;;
72439;SDS011;60446;50.752;4.352;2023-08-06T10:30:30;7.87;;;0.80;;
72439;SDS011;60446;50.752;4.352;2023-08-06T10:32:59;5.32;;;0.88;;
72439;SDS011;60446;50.752;4.352;2023-08-06T10:38:09;3.95;;;0.80;;
72439;SDS011;60446;50.752;4.352;2023-08-06T10:40:41;4.05;;;0.80;;
72439;SDS011;60446;50.752;4.352;2023-08-06T10:46:10;5.05;;;1.33;;
72439;SDS011;60446;50.752;4.352;2023-08-06T10:48:40;5.65;;;0.98;;
72439;SDS011;60446;50.752;4.352;2023-08-06T10:51:12;5.65;;;1.10;;
72439;SDS011;60446;50.752;4.352;2023-08-06T10:53:42;6.65;;;1.55;;
72439;SDS011;60446;50.752;4.352;2023-08-06T10:56:14;8.30;;;0.90;;
72439;SDS011;60446;50.752;4.352;2023-08-06T10:58:43;9.02;;;1.38;;
72439;SDS011;60446;50.752;4.352;2023-08-06T11:01:12;6.28;;;1.10;;
72439;SDS011;60446;50.752;4.352;2023-08-06T11:03:39;6.13;;;1.10;;
72439;SDS011;60446;50.752;4.352;2023-08-06T11:06:08;5.72;;;1.20;;
72439;SDS011;60446;50.752;4.352;2023-08-06T11:08:37;4.73;;;0.83;;
72439;SDS011;60446;50.752;4.352;2023-08-06T11:11:07;4.18;;;1.10;;
72439;SDS011;60446;50.752;4.352;2023-08-06T11:13:48;4.55;;;0.80;;
72439;SDS011;60446;50.752;4.352;2023-08-06T11:16:23;5.20;;;1.10;;
72439;SDS011;60446;50.752;4.352;2023-08-06T11:18:53;6.28;;;1.05;;
72439;SDS011;60446;50.752;4.352;2023-08-06T11:21:23;7.40;;;1.40;;
72439;SDS011;60446;50.752;4.352;2023-08-06T11:23:53;6.30;;;1.40;;
72439;SDS011;60446;50.752;4.352;2023-08-06T11:26:21;7.47;;;1.20;;
72439;SDS011;60446;50.752;4.352;2023-08-06T11:28:52;5.18;;;1.00;;
72439;SDS011;60446;50.752;4.352;2023-08-06T11:31:19;7.22;;;1.40;;
72439;SDS011;60446;50.752;4.352;2023-08-06T11:33:50;6.73;;;1.13;;
72439;SDS011;60446;50.752;4.352;2023-08-06T11:36:34;6.78;;;1.15;;
72439;SDS011;60446;50.752;4.352;2023-08-06T11:39:07;4.50;;;0.73;;
72439;SDS011;60446;50.752;4.352;2023-08-06T11:41:35;5.43;;;1.25;;
72439;SDS011;60446;50.752;4.352;2023-08-06T11:44:06;6.90;;;0.95;;
72439;SDS011;60446;50.752;4.352;2023-08-06T11:46:54;6.63;;;1.03;;
72439;SDS011;60446;50.752;4.352;2023-08-06T11:49:39;6.43;;;1.00;;
72439;SDS011;60446;50.752;4.352;2023-08-06T11:52:14;5.32;;;0.80;;
72439;SDS011;60446;50.752;4.352;2023-08-06T11:55:02;4.07;;;0.80;;
72439;SDS011;60446;50.752;4.352;2023-08-06T11:57:34;7.93;;;0.90;;
72439;SDS011;60446;50.752;4.352;2023-08-06T12:00:05;6.20;;;1.00;;
72439;SDS011;60446;50.752;4.352;2023-08-06T12:02:44;5.22;;;0.75;;
72439;SDS011;60446;50.752;4.352;2023-08-06T12:05:16;6.65;;;0.95;;
72439;SDS011;60446;50.752;4.352;2023-08-06T12:07:51;5.68;;;0.82;;
72439;SDS011;60446;50.752;4.352;2023-08-06T12:10:22;4.57;;;1.10;;
72439;SDS011;60446;50.752;4.352;2023-08-06T12:12:51;7.43;;;1.40;;
72439;SDS011;60446;50.752;4.352;2023-08-06T12:15:20;6.68;;;1.20;;
72439;SDS011;60446;50.752;4.352;2023-08-06T12:17:48;4.55;;;0.57;;
72439;SDS011;60446;50.752;4.352;2023-08-06T12:20:15;4.75;;;1.00;;
72439;SDS011;60446;50.752;4.352;2023-08-06T12:22:43;4.00;;;0.85;;
72439;SDS011;60446;50.752;4.352;2023-08-06T12:25:12;5.47;;;0.80;;
72439;SDS011;60446;50.752;4.352;2023-08-06T12:27:41;5.18;;;1.00;;
72439;SDS011;60446;50.752;4.352;2023-08-06T12:30:10;4.55;;;0.93;;
72439;SDS011;60446;50.752;4.352;2023-08-06T12:32:39;3.53;;;0.85;;
72439;SDS011;60446;50.752;4.352;2023-08-06T12:35:07;4.90;;;1.17;;
72439;SDS011;60446;50.752;4.352;2023-08-06T12:37:35;6.70;;;1.07;;
72439;SDS011;60446;50.752;4.352;2023-08-06T12:40:03;6.32;;;0.90;;
72439;SDS011;60446;50.752;4.352;2023-08-06T12:42:50;5.47;;;1.10;;
72439;SDS011;60446;50.752;4.352;2023-08-06T12:45:17;4.55;;;1.02;;
72439;SDS011;60446;50.752;4.352;2023-08-06T12:47:48;5.63;;;1.25;;
72439;SDS011;60446;50.752;4.352;2023-08-06T12:50:16;9.07;;;1.50;;
72439;SDS011;60446;50.752;4.352;2023-08-06T12:52:44;6.75;;;1.55;;
72439;SDS011;60446;50.752;4.352;2023-08-06T12:55:12;6.78;;;1.10;;
72439;SDS011;60446;50.752;4.352;2023-08-06T12:57:39;4.60;;;0.80;;
72439;SDS011;60446;50.752;4.352;2023-08-06T13:00:23;4.70;;;0.90;;
72439;SDS011;60446;50.752;4.352;2023-08-06T13:02:51;5.50;;;1.00;;
72439;SDS011;60446;50.752;4.352;2023-08-06T13:05:19;3.50;;;1.00;;
72439;SDS011;60446;50.752;4.352;2023-08-06T13:07:46;5.88;;;1.20;;
72439;SDS011;60446;50.752;4.352;2023-08-06T13:10:13;6.53;;;0.98;;
72439;SDS011;60446;50.752;4.352;2023-08-06T13:12:41;8.80;;;1.67;;
72439;SDS011;60446;50.752;4.352;2023-08-06T13:15:08;5.03;;;1.25;;
72439;SDS011;60446;50.752;4.352;2023-08-06T13:17:36;9.75;;;1.05;;
72439;SDS011;60446;50.752;4.352;2023-08-06T13:20:03;9.77;;;1.58;;
72439;SDS011;60446;50.752;4.352;2023-08-06T13:22:32;6.82;;;1.27;;
72439;SDS011;60446;50.752;4.352;2023-08-06T13:24:59;6.03;;;1.30;;
72439;SDS011;60446;50.752;4.352;2023-08-06T13:27:27;5.88;;;1.10;;
72439;SDS011;60446;50.752;4.352;2023-08-06T13:29:54;6.03;;;1.00;;
72439;SDS011;60446;50.752;4.352;2023-08-06T13:32:21;4.60;;;1.10;;
72439;SDS011;60446;50.752;4.352;2023-08-06T13:34:48;6.03;;;1.10;;
72439;SDS011;60446;50.752;4.352;2023-08-06T13:37:16;8.90;;;1.47;;
72439;SDS011;60446;50.752;4.352;2023-08-06T13:39:43;3.75;;;0.75;;
72439;SDS011;60446;50.752;4.352;2023-08-06T13:42:10;5.40;;;0.80;;
72439;SDS011;60446;50.752;4.352;2023-08-06T13:44:37;4.82;;;0.60;;
72439;SDS011;60446;50.752;4.352;2023-08-06T13:47:04;5.78;;;0.60;;
72439;SDS011;60446;50.752;4.352;2023-08-06T13:49:31;4.73;;;1.00;;
72439;SDS011;60446;50.752;4.352;2023-08-06T13:51:59;5.40;;;0.88;;
72439;SDS011;60446;50.752;4.352;2023-08-06T13:54:45;4.40;;;0.90;;
72439;SDS011;60446;50.752;4.352;2023-08-06T13:57:12;4.20;;;0.57;;
72439;SDS011;60446;50.752;4.352;2023-08-06T13:59:39;6.22;;;0.75;;
72439;SDS011;60446;50.752;4.352;2023-08-06T14:02:07;6.10;;;0.60;;
72439;SDS011;60446;50.752;4.352;2023-08-06T14:04:34;5.63;;;1.17;;
72439;SDS011;60446;50.752;4.352;2023-08-06T14:07:03;7.03;;;0.85;;
72439;SDS011;60446;50.752;4.352;2023-08-06T14:09:31;4.93;;;0.90;;
72439;SDS011;60446;50.752;4.352;2023-08-06T14:11:58;5.20;;;0.80;;
72439;SDS011;60446;50.752;4.352;2023-08-06T14:14:26;4.43;;;0.90;;
72439;SDS011;60446;50.752;4.352;2023-08-06T14:16:53;9.60;;;1.30;;
72439;SDS011;60446;50.752;4.352;2023-08-06T14:19:21;5.90;;;0.73;;
72439;SDS011;60446;50.752;4.352;2023-08-06T14:21:49;4.18;;;0.73;;
72439;SDS011;60446;50.752;4.352;2023-08-06T14:24:17;3.33;;;0.60;;
72439;SDS011;60446;50.752;4.352;2023-08-06T14:26:45;4.57;;;0.87;;
72439;SDS011;60446;50.752;4.352;2023-08-06T14:29:12;7.25;;;0.65;;
72439;SDS011;60446;50.752;4.352;2023-08-06T14:31:40;4.07;;;0.50;;
72439;SDS011;60446;50.752;4.352;2023-08-06T14:34:08;6.40;;;1.00;;
72439;SDS011;60446;50.752;4.352;2023-08-06T14:36:35;6.85;;;0.90;;
72439;SDS011;60446;50.752;4.352;2023-08-06T14:39:02;4.13;;;0.67;;
72439;SDS011;60446;50.752;4.352;2023-08-06T14:41:29;5.22;;;0.85;;
72439;SDS011;60446;50.752;4.352;2023-08-06T14:43:56;5.40;;;0.70;;
72439;SDS011;60446;50.752;4.352;2023-08-06T14:46:24;4.05;;;0.50;;
72439;SDS011;60446;50.752;4.352;2023-08-06T14:48:52;4.20;;;0.65;;
72439;SDS011;60446;50.752;4.352;2023-08-06T14:51:19;3.03;;;0.43;;
72439;SDS011;60446;50.752;4.352;2023-08-06T14:53:47;8.07;;;0.70;;
72439;SDS011;60446;50.752;4.352;2023-08-06T14:56:14;6.32;;;0.70;;
72439;SDS011;60446;50.752;4.352;2023-08-06T14:58:42;5.72;;;0.65;;
72439;SDS011;60446;50.752;4.352;2023-08-06T15:01:09;6.25;;;0.88;;
72439;SDS011;60446;50.752;4.352;2023-08-06T15:03:37;6.60;;;0.60;;
72439;SDS011;60446;50.752;4.352;2023-08-06T15:06:04;5.88;;;0.95;;
72439;SDS011;60446;50.752;4.352;2023-08-06T15:08:31;5.40;;;0.60;;
72439;SDS011;60446;50.752;4.352;2023-08-06T15:10:58;6.72;;;0.80;;
72439;SDS011;60446;50.752;4.352;2023-08-06T15:13:29;8.90;;;1.50;;